createdAt,value
2023-07-28T00:08:15.436Z,96.4
2023-07-28T00:18:15.557Z,96.4
2023-07-28T00:28:15.375Z,96.6
2023-07-28T00:38:15.334Z,96.6
2023-07-28T00:48:15.305Z,96.6
2023-07-28T00:58:15.272Z,96.6
2023-07-28T01:08:15.234Z,96.6
2023-07-28T01:18:15.221Z,96.6
2023-07-28T01:28:15.192Z,96.8
2023-07-28T01:38:15.136Z,96.6
2023-07-28T01:48:15.144Z,96.6
2023-07-28T01:58:15.086Z,96.4
2023-07-28T02:08:15.094Z,96.4
2023-07-28T02:18:15.008Z,96.6
2023-07-28T02:28:14.984Z,96.8
2023-07-28T02:38:14.941Z,96.8
2023-07-28T02:48:14.914Z,97
2023-07-28T02:58:14.906Z,97
2023-07-28T03:08:14.849Z,97.2
2023-07-28T03:18:14.808Z,97.4
2023-07-28T03:28:14.771Z,97.4
2023-07-28T03:38:14.755Z,97.4
2023-07-28T03:48:14.717Z,97.4
2023-07-28T03:58:14.691Z,97.4
2023-07-28T04:08:14.707Z,97.6
2023-07-28T04:18:14.624Z,97.6
2023-07-28T04:28:14.729Z,97.6
2023-07-28T04:38:14.558Z,97.6
2023-07-28T04:48:14.599Z,97.6
2023-07-28T04:58:14.498Z,97.8
2023-07-28T05:08:14.452Z,97.6
2023-07-28T05:18:14.454Z,97.6
2023-07-28T05:38:14.371Z,97.6
2023-07-28T05:48:14.334Z,97.6
2023-07-28T05:58:14.299Z,97.6
2023-07-28T06:08:14.282Z,97.4
2023-07-28T06:18:14.237Z,97.4
2023-07-28T06:28:14.328Z,97.4
2023-07-28T06:38:14.158Z,97.4
2023-07-28T06:48:14.131Z,97.4
2023-07-28T06:58:14.082Z,97.2
2023-07-28T07:08:14.047Z,97.2
2023-07-28T07:18:14.016Z,97
2023-07-28T07:28:13.986Z,96.8
2023-07-28T07:38:14.121Z,96.6
2023-07-28T07:48:13.930Z,96.2
2023-07-28T07:58:13.912Z,95.6
2023-07-28T08:08:13.859Z,95.2
2023-07-28T08:18:13.843Z,94.8
2023-07-28T08:28:13.807Z,94.4
2023-07-28T08:38:13.778Z,94.2
2023-07-28T08:48:13.748Z,93.2
2023-07-28T08:58:13.711Z,92
2023-07-28T09:08:13.685Z,91
2023-07-28T09:18:13.636Z,88.6
2023-07-28T09:28:13.636Z,86.2
2023-07-28T09:38:13.630Z,85
2023-07-28T09:48:13.573Z,84.2
2023-07-28T09:58:13.575Z,83
2023-07-28T10:08:13.735Z,83.6
2023-07-28T10:18:13.709Z,85.2
2023-07-28T10:28:13.425Z,87.4
2023-07-28T10:38:13.381Z,84.8
2023-07-28T10:48:13.664Z,84
2023-07-28T10:58:13.365Z,85.2
2023-07-28T11:08:13.278Z,85.6
2023-07-28T11:18:13.299Z,85.8
2023-07-28T11:28:13.214Z,84.8
2023-07-28T11:38:13.181Z,82.6
2023-07-28T11:48:13.229Z,81.4
2023-07-28T11:58:13.100Z,80.2
2023-07-28T12:08:13.123Z,79.8
2023-07-28T12:18:13.038Z,79.6
2023-07-28T12:28:13.019Z,77.2
2023-07-28T12:38:12.982Z,76.2
2023-07-28T12:48:12.948Z,78.4
2023-07-28T12:58:12.898Z,78.8
2023-07-28T13:08:12.864Z,77.8
2023-07-28T13:18:12.845Z,78.4
2023-07-28T13:28:12.832Z,79
2023-07-28T13:38:12.769Z,81.2
2023-07-28T13:48:12.747Z,83
2023-07-28T13:58:12.721Z,83.8
2023-07-28T14:08:12.681Z,81
2023-07-28T14:18:12.640Z,77.8
2023-07-28T14:28:12.603Z,75.6
2023-07-28T14:38:12.570Z,75.2
2023-07-28T14:48:12.533Z,77.8
2023-07-28T14:58:12.517Z,79.4
2023-07-28T15:08:12.468Z,81.6
2023-07-28T15:18:12.445Z,80
2023-07-28T15:28:12.399Z,80.8
2023-07-28T15:38:12.355Z,82.4
2023-07-28T15:48:12.344Z,86
2023-07-28T15:58:12.313Z,87.6
2023-07-28T16:08:12.274Z,86
2023-07-28T16:18:12.247Z,82.4
2023-07-28T16:28:12.208Z,82.8
2023-07-28T16:38:12.174Z,87.6
2023-07-28T16:48:12.144Z,89.2
2023-07-28T16:58:12.098Z,88
2023-07-28T17:08:12.072Z,89
2023-07-28T17:18:12.169Z,87.6
2023-07-28T17:28:12.000Z,87.8
2023-07-28T17:38:11.968Z,83.6
2023-07-28T17:48:11.924Z,83.4
2023-07-28T17:58:11.901Z,84.8
2023-07-28T18:08:11.868Z,83
2023-07-28T18:18:11.860Z,85
2023-07-28T18:28:11.810Z,84.6
2023-07-28T18:38:11.764Z,88.4
2023-07-28T18:48:11.740Z,88.8
2023-07-28T18:58:11.700Z,89
2023-07-28T19:08:11.665Z,90
2023-07-28T19:18:11.625Z,91.6
2023-07-28T19:28:11.585Z,92.6
2023-07-28T19:38:11.565Z,93.2
2023-07-28T19:48:11.520Z,94
2023-07-28T19:58:11.502Z,94.4
2023-07-28T20:08:11.464Z,94.6
2023-07-28T20:18:11.432Z,95
2023-07-28T20:28:11.394Z,94.6
2023-07-28T20:38:11.372Z,93.2
2023-07-28T20:48:11.333Z,92.4
2023-07-28T20:58:11.301Z,92.2
2023-07-28T21:08:11.269Z,92
2023-07-28T21:18:11.239Z,91.8
2023-07-28T21:28:11.235Z,91.8
2023-07-28T21:38:11.172Z,92.4
2023-07-28T21:48:11.118Z,92.8
2023-07-28T21:58:11.109Z,93
2023-07-28T22:08:11.068Z,93.2
2023-07-28T22:18:11.027Z,93.4
2023-07-28T22:28:10.988Z,93.2
2023-07-28T22:38:10.958Z,93.2
2023-07-28T22:48:10.933Z,92.8
2023-07-28T22:58:10.900Z,92.6
2023-07-28T23:08:10.872Z,92.6
2023-07-28T23:18:10.834Z,93
2023-07-28T23:28:10.789Z,93.2
2023-07-28T23:38:10.762Z,93.2
2023-07-28T23:58:10.697Z,93
